sensor_id;sensor_type;location;lat;lon;timestamp;P1;durP1;ratioP1;P2;durP2;ratioP2
7485;SDS011;3784;54.098;9.998;2023-12-28T00:01:42;6.40;;;5.70;;
7485;SDS011;3784;54.098;9.998;2023-12-28T00:04:09;7.90;;;5.30;;
7485;SDS011;3784;54.098;9.998;2023-12-28T00:06:36;6.83;;;4.93;;
7485;SDS011;3784;54.098;9.998;2023-12-28T00:09:03;7.20;;;4.70;;
7485;SDS011;3784;54.098;9.998;2023-12-28T00:11:37;6.90;;;4.53;;
7485;SDS011;3784;54.098;9.998;2023-12-28T00:14:03;4.77;;;4.30;;
7485;SDS011;3784;54.098;9.998;2023-12-28T00:16:31;4.87;;;3.60;;
7485;SDS011;3784;54.098;9.998;2023-12-28T00:18:59;5.70;;;3.70;;
7485;SDS011;3784;54.098;9.998;2023-12-28T00:21:28;5.83;;;3.77;;
7485;SDS011;3784;54.098;9.998;2023-12-28T00:23:55;5.17;;;3.30;;
7485;SDS011;3784;54.098;9.998;2023-12-28T00:26:22;6.57;;;3.67;;
7485;SDS011;3784;54.098;9.998;2023-12-28T00:28:48;5.77;;;3.10;;
7485;SDS011;3784;54.098;9.998;2023-12-28T00:31:15;3.97;;;3.20;;
7485;SDS011;3784;54.098;9.998;2023-12-28T00:33:42;5.37;;;3.73;;
7485;SDS011;3784;54.098;9.998;2023-12-28T00:36:09;7.10;;;3.97;;
7485;SDS011;3784;54.098;9.998;2023-12-28T00:38:36;4.47;;;3.47;;
7485;SDS011;3784;54.098;9.998;2023-12-28T00:41:03;5.10;;;3.73;;
7485;SDS011;3784;54.098;9.998;2023-12-28T00:43:29;5.70;;;3.60;;
7485;SDS011;3784;54.098;9.998;2023-12-28T00:45:56;5.53;;;3.83;;
7485;SDS011;3784;54.098;9.998;2023-12-28T00:48:23;4.40;;;3.60;;
7485;SDS011;3784;54.098;9.998;2023-12-28T00:50:51;6.07;;;3.50;;
7485;SDS011;3784;54.098;9.998;2023-12-28T00:53:17;6.43;;;3.93;;
7485;SDS011;3784;54.098;9.998;2023-12-28T00:55:44;4.17;;;3.50;;
7485;SDS011;3784;54.098;9.998;2023-12-28T00:58:10;5.93;;;3.30;;
7485;SDS011;3784;54.098;9.998;2023-12-28T01:00:36;4.00;;;3.60;;
7485;SDS011;3784;54.098;9.998;2023-12-28T01:03:03;5.33;;;3.83;;
7485;SDS011;3784;54.098;9.998;2023-12-28T01:05:30;5.70;;;3.50;;
7485;SDS011;3784;54.098;9.998;2023-12-28T01:07:56;6.23;;;3.83;;
7485;SDS011;3784;54.098;9.998;2023-12-28T01:10:23;5.33;;;3.87;;
7485;SDS011;3784;54.098;9.998;2023-12-28T01:12:49;4.27;;;3.87;;
7485;SDS011;3784;54.098;9.998;2023-12-28T01:15:16;8.17;;;4.10;;
7485;SDS011;3784;54.098;9.998;2023-12-28T01:17:44;6.00;;;3.60;;
7485;SDS011;3784;54.098;9.998;2023-12-28T01:20:11;6.80;;;4.43;;
7485;SDS011;3784;54.098;9.998;2023-12-28T01:22:37;6.43;;;3.80;;
7485;SDS011;3784;54.098;9.998;2023-12-28T01:25:04;3.77;;;3.47;;
7485;SDS011;3784;54.098;9.998;2023-12-28T01:27:30;7.00;;;4.03;;
7485;SDS011;3784;54.098;9.998;2023-12-28T01:29:57;5.67;;;3.40;;
7485;SDS011;3784;54.098;9.998;2023-12-28T01:32:23;4.63;;;3.60;;
7485;SDS011;3784;54.098;9.998;2023-12-28T01:34:50;5.03;;;3.67;;
7485;SDS011;3784;54.098;9.998;2023-12-28T01:37:16;4.63;;;3.87;;
7485;SDS011;3784;54.098;9.998;2023-12-28T01:39:43;7.60;;;3.60;;
7485;SDS011;3784;54.098;9.998;2023-12-28T01:42:09;6.40;;;4.13;;
7485;SDS011;3784;54.098;9.998;2023-12-28T01:44:36;5.17;;;3.63;;
7485;SDS011;3784;54.098;9.998;2023-12-28T01:47:02;5.07;;;3.83;;
7485;SDS011;3784;54.098;9.998;2023-12-28T01:49:29;6.10;;;3.97;;
7485;SDS011;3784;54.098;9.998;2023-12-28T01:51:56;5.57;;;3.60;;
7485;SDS011;3784;54.098;9.998;2023-12-28T01:54:23;4.53;;;3.73;;
7485;SDS011;3784;54.098;9.998;2023-12-28T01:56:49;4.80;;;3.77;;
7485;SDS011;3784;54.098;9.998;2023-12-28T01:59:15;8.37;;;4.30;;
7485;SDS011;3784;54.098;9.998;2023-12-28T02:01:42;5.33;;;4.23;;
7485;SDS011;3784;54.098;9.998;2023-12-28T02:04:09;5.83;;;4.23;;
7485;SDS011;3784;54.098;9.998;2023-12-28T02:06:36;4.73;;;3.73;;
7485;SDS011;3784;54.098;9.998;2023-12-28T02:09:02;4.60;;;4.10;;
7485;SDS011;3784;54.098;9.998;2023-12-28T02:11:29;6.70;;;3.83;;
7485;SDS011;3784;54.098;9.998;2023-12-28T02:13:55;3.93;;;3.40;;
7485;SDS011;3784;54.098;9.998;2023-12-28T02:16:26;4.53;;;3.73;;
7485;SDS011;3784;54.098;9.998;2023-12-28T02:18:56;5.67;;;4.07;;
7485;SDS011;3784;54.098;9.998;2023-12-28T02:21:24;6.10;;;3.60;;
7485;SDS011;3784;54.098;9.998;2023-12-28T02:23:51;5.80;;;3.60;;
7485;SDS011;3784;54.098;9.998;2023-12-28T02:26:17;6.43;;;3.80;;
7485;SDS011;3784;54.098;9.998;2023-12-28T02:28:44;4.40;;;3.10;;
7485;SDS011;3784;54.098;9.998;2023-12-28T02:31:19;4.70;;;3.67;;
7485;SDS011;3784;54.098;9.998;2023-12-28T02:33:49;4.43;;;3.60;;
7485;SDS011;3784;54.098;9.998;2023-12-28T02:36:18;6.33;;;4.23;;
7485;SDS011;3784;54.098;9.998;2023-12-28T02:38:45;5.00;;;3.87;;
7485;SDS011;3784;54.098;9.998;2023-12-28T02:41:12;7.87;;;3.67;;
7485;SDS011;3784;54.098;9.998;2023-12-28T02:43:38;4.57;;;3.63;;
7485;SDS011;3784;54.098;9.998;2023-12-28T02:46:05;5.30;;;3.33;;
7485;SDS011;3784;54.098;9.998;2023-12-28T02:48:31;7.53;;;4.03;;
7485;SDS011;3784;54.098;9.998;2023-12-28T02:50:58;5.17;;;3.70;;
7485;SDS011;3784;54.098;9.998;2023-12-28T02:53:24;4.77;;;3.67;;
7485;SDS011;3784;54.098;9.998;2023-12-28T02:55:51;5.27;;;4.07;;
7485;SDS011;3784;54.098;9.998;2023-12-28T02:58:17;4.83;;;3.37;;
7485;SDS011;3784;54.098;9.998;2023-12-28T03:00:44;6.60;;;3.70;;
7485;SDS011;3784;54.098;9.998;2023-12-28T03:03:10;4.57;;;4.00;;
7485;SDS011;3784;54.098;9.998;2023-12-28T03:05:37;5.63;;;3.60;;
7485;SDS011;3784;54.098;9.998;2023-12-28T03:08:03;5.03;;;3.83;;
7485;SDS011;3784;54.098;9.998;2023-12-28T03:10:30;4.30;;;3.70;;
7485;SDS011;3784;54.098;9.998;2023-12-28T03:12:56;7.70;;;3.83;;
7485;SDS011;3784;54.098;9.998;2023-12-28T03:15:24;5.03;;;3.60;;
7485;SDS011;3784;54.098;9.998;2023-12-28T03:17:50;4.27;;;3.70;;
7485;SDS011;3784;54.098;9.998;2023-12-28T03:20:17;5.47;;;3.50;;
7485;SDS011;3784;54.098;9.998;2023-12-28T03:22:44;6.20;;;3.30;;
7485;SDS011;3784;54.098;9.998;2023-12-28T03:25:11;4.33;;;3.60;;
7485;SDS011;3784;54.098;9.998;2023-12-28T03:27:37;4.83;;;3.60;;
7485;SDS011;3784;54.098;9.998;2023-12-28T03:30:04;5.27;;;3.50;;
7485;SDS011;3784;54.098;9.998;2023-12-28T03:32:31;3.93;;;3.03;;
7485;SDS011;3784;54.098;9.998;2023-12-28T03:34:57;4.83;;;3.50;;
7485;SDS011;3784;54.098;9.998;2023-12-28T03:37:23;5.73;;;3.57;;
7485;SDS011;3784;54.098;9.998;2023-12-28T03:39:50;4.30;;;3.70;;
7485;SDS011;3784;54.098;9.998;2023-12-28T03:42:16;4.13;;;3.70;;
7485;SDS011;3784;54.098;9.998;2023-12-28T03:44:43;6.67;;;3.53;;
7485;SDS011;3784;54.098;9.998;2023-12-28T03:47:09;4.23;;;3.40;;
7485;SDS011;3784;54.098;9.998;2023-12-28T03:49:36;7.10;;;4.00;;
7485;SDS011;3784;54.098;9.998;2023-12-28T03:52:03;5.97;;;3.73;;
7485;SDS011;3784;54.098;9.998;2023-12-28T03:54:30;4.03;;;3.60;;
7485;SDS011;3784;54.098;9.998;2023-12-28T03:56:56;5.17;;;3.00;;
7485;SDS011;3784;54.098;9.998;2023-12-28T03:59:23;5.77;;;3.90;;
7485;SDS011;3784;54.098;9.998;2023-12-28T04:01:49;3.93;;;3.27;;
7485;SDS011;3784;54.098;9.998;2023-12-28T04:04:16;4.47;;;3.73;;
7485;SDS011;3784;54.098;9.998;2023-12-28T04:06:43;7.03;;;3.40;;
7485;SDS011;3784;54.098;9.998;2023-12-28T04:09:13;5.50;;;3.70;;
7485;SDS011;3784;54.098;9.998;2023-12-28T04:11:40;4.63;;;3.33;;
7485;SDS011;3784;54.098;9.998;2023-12-28T04:14:08;5.80;;;3.97;;
7485;SDS011;3784;54.098;9.998;2023-12-28T04:16:34;7.67;;;3.40;;
7485;SDS011;3784;54.098;9.998;2023-12-28T04:19:01;7.63;;;3.30;;
7485;SDS011;3784;54.098;9.998;2023-12-28T04:21:28;6.07;;;3.30;;
7485;SDS011;3784;54.098;9.998;2023-12-28T04:23:55;5.73;;;3.50;;
7485;SDS011;3784;54.098;9.998;2023-12-28T04:26:21;5.63;;;3.37;;
7485;SDS011;3784;54.098;9.998;2023-12-28T04:28:47;4.43;;;3.47;;
7485;SDS011;3784;54.098;9.998;2023-12-28T04:31:14;6.30;;;3.37;;
7485;SDS011;3784;54.098;9.998;2023-12-28T04:33:40;10.80;;;3.77;;
7485;SDS011;3784;54.098;9.998;2023-12-28T04:36:07;7.07;;;3.40;;
7485;SDS011;3784;54.098;9.998;2023-12-28T04:38:34;4.17;;;3.17;;
7485;SDS011;3784;54.098;9.998;2023-12-28T04:41:01;5.77;;;3.43;;
7485;SDS011;3784;54.098;9.998;2023-12-28T04:43:28;9.20;;;4.10;;
7485;SDS011;3784;54.098;9.998;2023-12-28T04:45:54;4.87;;;3.27;;
7485;SDS011;3784;54.098;9.998;2023-12-28T04:48:21;6.60;;;3.80;;
7485;SDS011;3784;54.098;9.998;2023-12-28T04:50:50;8.27;;;3.60;;
7485;SDS011;3784;54.098;9.998;2023-12-28T04:53:17;6.00;;;3.00;;
7485;SDS011;3784;54.098;9.998;2023-12-28T04:55:43;4.90;;;3.50;;
7485;SDS011;3784;54.098;9.998;2023-12-28T04:58:12;5.80;;;3.30;;
7485;SDS011;3784;54.098;9.998;2023-12-28T05:00:39;4.83;;;3.47;;
7485;SDS011;3784;54.098;9.998;2023-12-28T05:03:06;6.10;;;3.27;;
7485;SDS011;3784;54.098;9.998;2023-12-28T05:05:33;5.03;;;3.20;;
7485;SDS011;3784;54.098;9.998;2023-12-28T05:08:00;8.67;;;3.40;;
7485;SDS011;3784;54.098;9.998;2023-12-28T05:10:26;6.80;;;3.93;;
7485;SDS011;3784;54.098;9.998;2023-12-28T05:12:53;6.67;;;3.90;;
7485;SDS011;3784;54.098;9.998;2023-12-28T05:15:25;6.77;;;4.00;;
7485;SDS011;3784;54.098;9.998;2023-12-28T05:17:52;6.60;;;3.27;;
7485;SDS011;3784;54.098;9.998;2023-12-28T05:20:18;5.03;;;3.40;;
7485;SDS011;3784;54.098;9.998;2023-12-28T05:22:45;4.93;;;3.27;;
7485;SDS011;3784;54.098;9.998;2023-12-28T05:25:11;9.33;;;3.37;;
7485;SDS011;3784;54.098;9.998;2023-12-28T05:27:38;7.03;;;3.43;;
7485;SDS011;3784;54.098;9.998;2023-12-28T05:30:05;7.73;;;3.40;;
7485;SDS011;3784;54.098;9.998;2023-12-28T05:32:32;6.67;;;3.40;;
7485;SDS011;3784;54.098;9.998;2023-12-28T05:34:58;6.17;;;3.47;;
7485;SDS011;3784;54.098;9.998;2023-12-28T05:37:24;5.77;;;3.47;;
7485;SDS011;3784;54.098;9.998;2023-12-28T05:39:51;4.93;;;3.10;;
7485;SDS011;3784;54.098;9.998;2023-12-28T05:42:18;5.10;;;3.27;;
7485;SDS011;3784;54.098;9.998;2023-12-28T05:44:44;7.57;;;3.83;;
7485;SDS011;3784;54.098;9.998;2023-12-28T05:47:11;8.83;;;3.60;;
7485;SDS011;3784;54.098;9.998;2023-12-28T05:49:37;7.07;;;3.27;;
7485;SDS011;3784;54.098;9.998;2023-12-28T05:52:04;6.33;;;3.60;;
7485;SDS011;3784;54.098;9.998;2023-12-28T05:54:31;8.60;;;3.80;;
7485;SDS011;3784;54.098;9.998;2023-12-28T05:56:57;5.43;;;3.57;;
7485;SDS011;3784;54.098;9.998;2023-12-28T05:59:25;6.77;;;3.50;;
7485;SDS011;3784;54.098;9.998;2023-12-28T06:01:52;5.83;;;3.37;;
7485;SDS011;3784;54.098;9.998;2023-12-28T06:04:19;6.87;;;3.23;;
7485;SDS011;3784;54.098;9.998;2023-12-28T06:06:45;6.60;;;3.00;;
7485;SDS011;3784;54.098;9.998;2023-12-28T06:09:12;6.47;;;3.43;;
7485;SDS011;3784;54.098;9.998;2023-12-28T06:11:38;4.63;;;3.40;;
7485;SDS011;3784;54.098;9.998;2023-12-28T06:14:04;5.33;;;3.20;;
7485;SDS011;3784;54.098;9.998;2023-12-28T06:16:31;5.50;;;3.40;;
7485;SDS011;3784;54.098;9.998;2023-12-28T06:18:59;5.33;;;3.43;;
7485;SDS011;3784;54.098;9.998;2023-12-28T06:21:26;9.43;;;3.03;;
7485;SDS011;3784;54.098;9.998;2023-12-28T06:23:53;6.70;;;2.97;;
7485;SDS011;3784;54.098;9.998;2023-12-28T06:26:19;8.63;;;3.13;;
7485;SDS011;3784;54.098;9.998;2023-12-28T06:28:47;5.90;;;3.03;;
7485;SDS011;3784;54.098;9.998;2023-12-28T06:31:13;6.40;;;3.10;;
7485;SDS011;3784;54.098;9.998;2023-12-28T06:33:40;5.20;;;2.93;;
7485;SDS011;3784;54.098;9.998;2023-12-28T06:36:07;7.37;;;3.23;;
7485;SDS011;3784;54.098;9.998;2023-12-28T06:38:33;5.90;;;2.80;;
7485;SDS011;3784;54.098;9.998;2023-12-28T06:41:00;5.07;;;2.63;;
7485;SDS011;3784;54.098;9.998;2023-12-28T06:43:26;6.50;;;2.73;;
7485;SDS011;3784;54.098;9.998;2023-12-28T06:45:52;5.77;;;3.00;;
7485;SDS011;3784;54.098;9.998;2023-12-28T06:48:19;4.93;;;3.07;;
7485;SDS011;3784;54.098;9.998;2023-12-28T06:50:46;5.10;;;3.00;;
7485;SDS011;3784;54.098;9.998;2023-12-28T06:53:12;6.60;;;2.83;;
7485;SDS011;3784;54.098;9.998;2023-12-28T06:55:38;3.93;;;2.87;;
7485;SDS011;3784;54.098;9.998;2023-12-28T06:58:05;5.60;;;2.77;;
7485;SDS011;3784;54.098;9.998;2023-12-28T07:00:33;5.37;;;3.20;;
7485;SDS011;3784;54.098;9.998;2023-12-28T07:03:00;4.27;;;3.07;;
7485;SDS011;3784;54.098;9.998;2023-12-28T07:05:26;4.07;;;2.60;;
7485;SDS011;3784;54.098;9.998;2023-12-28T07:07:53;5.87;;;3.10;;
7485;SDS011;3784;54.098;9.998;2023-12-28T07:10:19;5.83;;;3.03;;
7485;SDS011;3784;54.098;9.998;2023-12-28T07:12:46;5.80;;;2.73;;
7485;SDS011;3784;54.098;9.998;2023-12-28T07:15:13;4.37;;;2.63;;
7485;SDS011;3784;54.098;9.998;2023-12-28T07:17:40;6.40;;;2.97;;
7485;SDS011;3784;54.098;9.998;2023-12-28T07:20:08;4.37;;;2.57;;
7485;SDS011;3784;54.098;9.998;2023-12-28T07:22:37;6.30;;;3.07;;
7485;SDS011;3784;54.098;9.998;2023-12-28T07:25:05;6.20;;;2.50;;
7485;SDS011;3784;54.098;9.998;2023-12-28T07:27:32;7.27;;;2.63;;
7485;SDS011;3784;54.098;9.998;2023-12-28T07:29:59;4.50;;;2.60;;
7485;SDS011;3784;54.098;9.998;2023-12-28T07:32:26;5.07;;;3.10;;
7485;SDS011;3784;54.098;9.998;2023-12-28T07:34:53;5.70;;;2.80;;
7485;SDS011;3784;54.098;9.998;2023-12-28T07:37:20;5.07;;;2.63;;
7485;SDS011;3784;54.098;9.998;2023-12-28T07:39:46;6.57;;;2.87;;
7485;SDS011;3784;54.098;9.998;2023-12-28T07:42:13;4.33;;;2.70;;
7485;SDS011;3784;54.098;9.998;2023-12-28T07:44:40;6.60;;;2.73;;
7485;SDS011;3784;54.098;9.998;2023-12-28T07:47:06;5.10;;;3.00;;
7485;SDS011;3784;54.098;9.998;2023-12-28T07:49:35;5.17;;;2.77;;
7485;SDS011;3784;54.098;9.998;2023-12-28T07:52:01;4.77;;;2.83;;
7485;SDS011;3784;54.098;9.998;2023-12-28T07:54:29;11.17;;;3.47;;
7485;SDS011;3784;54.098;9.998;2023-12-28T07:56:55;6.27;;;3.40;;
7485;SDS011;3784;54.098;9.998;2023-12-28T07:59:22;7.40;;;3.10;;
7485;SDS011;3784;54.098;9.998;2023-12-28T08:01:48;7.23;;;3.07;;
7485;SDS011;3784;54.098;9.998;2023-12-28T08:04:15;9.30;;;3.77;;
7485;SDS011;3784;54.098;9.998;2023-12-28T08:06:41;6.00;;;2.77;;
7485;SDS011;3784;54.098;9.998;2023-12-28T08:09:08;8.27;;;3.10;;
7485;SDS011;3784;54.098;9.998;2023-12-28T08:11:34;7.20;;;3.17;;
7485;SDS011;3784;54.098;9.998;2023-12-28T08:14:01;5.43;;;2.67;;
7485;SDS011;3784;54.098;9.998;2023-12-28T08:16:27;5.37;;;2.50;;
7485;SDS011;3784;54.098;9.998;2023-12-28T08:18:54;7.07;;;2.87;;
7485;SDS011;3784;54.098;9.998;2023-12-28T08:21:20;7.17;;;3.20;;
7485;SDS011;3784;54.098;9.998;2023-12-28T08:23:47;8.40;;;3.40;;
7485;SDS011;3784;54.098;9.998;2023-12-28T08:26:13;5.30;;;2.80;;
7485;SDS011;3784;54.098;9.998;2023-12-28T08:28:40;6.57;;;3.40;;
7485;SDS011;3784;54.098;9.998;2023-12-28T08:31:06;11.67;;;3.13;;
7485;SDS011;3784;54.098;9.998;2023-12-28T08:33:35;10.33;;;3.60;;
7485;SDS011;3784;54.098;9.998;2023-12-28T08:36:06;8.07;;;2.90;;
7485;SDS011;3784;54.098;9.998;2023-12-28T08:38:33;5.30;;;3.07;;
7485;SDS011;3784;54.098;9.998;2023-12-28T08:40:59;5.87;;;3.10;;
7485;SDS011;3784;54.098;9.998;2023-12-28T08:43:26;5.53;;;2.90;;
7485;SDS011;3784;54.098;9.998;2023-12-28T08:45:53;10.23;;;3.30;;
7485;SDS011;3784;54.098;9.998;2023-12-28T08:48:20;7.57;;;2.70;;
7485;SDS011;3784;54.098;9.998;2023-12-28T08:50:48;9.60;;;3.00;;
7485;SDS011;3784;54.098;9.998;2023-12-28T08:53:14;6.37;;;2.77;;
7485;SDS011;3784;54.098;9.998;2023-12-28T08:55:41;5.20;;;2.60;;
7485;SDS011;3784;54.098;9.998;2023-12-28T08:58:07;11.07;;;3.00;;
7485;SDS011;3784;54.098;9.998;2023-12-28T09:00:34;6.73;;;2.90;;
7485;SDS011;3784;54.098;9.998;2023-12-28T09:03:00;7.10;;;3.03;;
7485;SDS011;3784;54.098;9.998;2023-12-28T09:05:26;10.33;;;3.30;;
7485;SDS011;3784;54.098;9.998;2023-12-28T09:07:53;7.63;;;3.00;;
7485;SDS011;3784;54.098;9.998;2023-12-28T09:10:19;8.50;;;3.00;;
7485;SDS011;3784;54.098;9.998;2023-12-28T09:12:46;8.87;;;3.43;;
7485;SDS011;3784;54.098;9.998;2023-12-28T09:15:13;6.30;;;2.57;;
7485;SDS011;3784;54.098;9.998;2023-12-28T09:17:39;6.50;;;2.70;;
7485;SDS011;3784;54.098;9.998;2023-12-28T09:20:06;8.00;;;3.07;;
7485;SDS011;3784;54.098;9.998;2023-12-28T09:22:32;7.43;;;2.63;;
7485;SDS011;3784;54.098;9.998;2023-12-28T09:24:59;9.80;;;3.13;;
7485;SDS011;3784;54.098;9.998;2023-12-28T09:27:26;13.43;;;3.73;;
7485;SDS011;3784;54.098;9.998;2023-12-28T09:29:52;8.70;;;3.20;;
7485;SDS011;3784;54.098;9.998;2023-12-28T09:32:18;9.80;;;3.67;;
7485;SDS011;3784;54.098;9.998;2023-12-28T09:34:45;9.50;;;3.23;;
7485;SDS011;3784;54.098;9.998;2023-12-28T09:37:11;10.50;;;3.10;;
7485;SDS011;3784;54.098;9.998;2023-12-28T09:39:38;9.70;;;3.33;;
7485;SDS011;3784;54.098;9.998;2023-12-28T09:42:04;11.30;;;3.47;;
7485;SDS011;3784;54.098;9.998;2023-12-28T09:44:34;11.37;;;3.43;;
7485;SDS011;3784;54.098;9.998;2023-12-28T09:47:03;7.13;;;2.73;;
7485;SDS011;3784;54.098;9.998;2023-12-28T09:49:32;7.17;;;3.03;;
7485;SDS011;3784;54.098;9.998;2023-12-28T09:52:00;9.90;;;3.20;;
7485;SDS011;3784;54.098;9.998;2023-12-28T09:54:26;8.43;;;3.13;;
7485;SDS011;3784;54.098;9.998;2023-12-28T09:56:52;10.73;;;3.37;;
7485;SDS011;3784;54.098;9.998;2023-12-28T09:59:19;6.67;;;2.90;;
7485;SDS011;3784;54.098;9.998;2023-12-28T10:01:45;10.07;;;3.07;;
7485;SDS011;3784;54.098;9.998;2023-12-28T10:04:13;10.40;;;3.07;;
7485;SDS011;3784;54.098;9.998;2023-12-28T10:06:40;14.13;;;3.60;;
7485;SDS011;3784;54.098;9.998;2023-12-28T10:09:07;11.00;;;3.93;;
7485;SDS011;3784;54.098;9.998;2023-12-28T10:11:34;9.93;;;3.10;;
7485;SDS011;3784;54.098;9.998;2023-12-28T10:14:01;9.33;;;3.50;;
7485;SDS011;3784;54.098;9.998;2023-12-28T10:16:28;9.37;;;3.10;;
7485;SDS011;3784;54.098;9.998;2023-12-28T10:18:55;15.57;;;3.97;;
7485;SDS011;3784;54.098;9.998;2023-12-28T10:21:22;8.30;;;3.17;;
7485;SDS011;3784;54.098;9.998;2023-12-28T10:23:49;12.43;;;3.37;;
7485;SDS011;3784;54.098;9.998;2023-12-28T10:26:17;13.83;;;3.67;;
7485;SDS011;3784;54.098;9.998;2023-12-28T10:28:44;13.73;;;3.47;;
7485;SDS011;3784;54.098;9.998;2023-12-28T10:31:10;9.33;;;3.43;;
7485;SDS011;3784;54.098;9.998;2023-12-28T10:33:38;11.67;;;3.30;;
7485;SDS011;3784;54.098;9.998;2023-12-28T10:36:06;11.43;;;3.27;;
7485;SDS011;3784;54.098;9.998;2023-12-28T10:38:35;12.47;;;3.87;;
7485;SDS011;3784;54.098;9.998;2023-12-28T10:41:06;11.30;;;3.50;;
7485;SDS011;3784;54.098;9.998;2023-12-28T10:43:44;13.27;;;3.83;;
7485;SDS011;3784;54.098;9.998;2023-12-28T10:49:14;13.30;;;3.63;;
7485;SDS011;3784;54.098;9.998;2023-12-28T10:51:43;12.50;;;3.47;;
7485;SDS011;3784;54.098;9.998;2023-12-28T11:02:16;12.27;;;3.73;;
7485;SDS011;3784;54.098;9.998;2023-12-28T11:04:48;18.47;;;4.30;;
7485;SDS011;3784;54.098;9.998;2023-12-28T11:07:17;14.03;;;3.53;;
7485;SDS011;3784;54.098;9.998;2023-12-28T11:09:44;15.83;;;3.87;;
7485;SDS011;3784;54.098;9.998;2023-12-28T11:12:11;10.87;;;3.57;;
7485;SDS011;3784;54.098;9.998;2023-12-28T11:14:41;10.97;;;3.80;;
7485;SDS011;3784;54.098;9.998;2023-12-28T11:17:09;9.20;;;3.40;;
7485;SDS011;3784;54.098;9.998;2023-12-28T11:19:36;12.60;;;4.20;;
7485;SDS011;3784;54.098;9.998;2023-12-28T11:22:03;11.33;;;3.50;;
7485;SDS011;3784;54.098;9.998;2023-12-28T11:24:30;11.57;;;3.53;;
7485;SDS011;3784;54.098;9.998;2023-12-28T11:26:57;9.80;;;3.63;;
7485;SDS011;3784;54.098;9.998;2023-12-28T11:29:24;13.00;;;5.00;;
7485;SDS011;3784;54.098;9.998;2023-12-28T11:31:54;11.77;;;4.03;;
7485;SDS011;3784;54.098;9.998;2023-12-28T11:34:31;13.23;;;3.60;;
7485;SDS011;3784;54.098;9.998;2023-12-28T11:37:01;13.03;;;3.70;;
7485;SDS011;3784;54.098;9.998;2023-12-28T11:39:31;13.80;;;3.93;;
7485;SDS011;3784;54.098;9.998;2023-12-28T11:44:29;13.17;;;3.33;;
7485;SDS011;3784;54.098;9.998;2023-12-28T11:46:57;13.67;;;3.80;;
7485;SDS011;3784;54.098;9.998;2023-12-28T11:49:26;14.17;;;4.50;;
7485;SDS011;3784;54.098;9.998;2023-12-28T11:51:55;9.37;;;3.27;;
7485;SDS011;3784;54.098;9.998;2023-12-28T11:54:26;15.27;;;3.93;;
7485;SDS011;3784;54.098;9.998;2023-12-28T11:56:55;15.67;;;4.17;;
7485;SDS011;3784;54.098;9.998;2023-12-28T11:59:23;12.47;;;3.63;;
7485;SDS011;3784;54.098;9.998;2023-12-28T12:01:53;12.33;;;4.03;;
7485;SDS011;3784;54.098;9.998;2023-12-28T12:04:21;15.50;;;3.97;;
7485;SDS011;3784;54.098;9.998;2023-12-28T12:06:48;15.00;;;4.63;;
7485;SDS011;3784;54.098;9.998;2023-12-28T12:09:14;13.40;;;3.93;;
7485;SDS011;3784;54.098;9.998;2023-12-28T12:11:41;13.80;;;4.17;;
7485;SDS011;3784;54.098;9.998;2023-12-28T12:14:11;16.40;;;3.87;;
7485;SDS011;3784;54.098;9.998;2023-12-28T12:16:37;15.27;;;4.40;;
7485;SDS011;3784;54.098;9.998;2023-12-28T12:19:04;13.00;;;3.77;;
7485;SDS011;3784;54.098;9.998;2023-12-28T12:21:35;12.47;;;3.93;;
7485;SDS011;3784;54.098;9.998;2023-12-28T12:24:02;13.50;;;3.90;;
7485;SDS011;3784;54.098;9.998;2023-12-28T12:26:28;15.73;;;3.73;;
7485;SDS011;3784;54.098;9.998;2023-12-28T12:28:56;15.50;;;3.70;;
7485;SDS011;3784;54.098;9.998;2023-12-28T12:31:23;18.77;;;5.03;;
7485;SDS011;3784;54.098;9.998;2023-12-28T12:33:50;16.77;;;3.93;;
7485;SDS011;3784;54.098;9.998;2023-12-28T12:36:18;11.53;;;3.47;;
7485;SDS011;3784;54.098;9.998;2023-12-28T12:38:45;13.20;;;4.33;;
7485;SDS011;3784;54.098;9.998;2023-12-28T12:41:11;16.10;;;4.27;;
7485;SDS011;3784;54.098;9.998;2023-12-28T12:43:38;15.17;;;4.50;;
7485;SDS011;3784;54.098;9.998;2023-12-28T12:46:04;12.87;;;3.83;;
7485;SDS011;3784;54.098;9.998;2023-12-28T12:48:31;15.67;;;4.37;;
7485;SDS011;3784;54.098;9.998;2023-12-28T12:51:01;13.70;;;3.90;;
7485;SDS011;3784;54.098;9.998;2023-12-28T12:53:35;16.57;;;4.13;;
7485;SDS011;3784;54.098;9.998;2023-12-28T12:56:05;21.77;;;4.30;;
7485;SDS011;3784;54.098;9.998;2023-12-28T12:58:49;14.57;;;4.03;;
7485;SDS011;3784;54.098;9.998;2023-12-28T13:01:45;12.93;;;3.97;;
7485;SDS011;3784;54.098;9.998;2023-12-28T13:04:18;18.33;;;5.27;;
7485;SDS011;3784;54.098;9.998;2023-12-28T13:06:46;15.97;;;4.30;;
7485;SDS011;3784;54.098;9.998;2023-12-28T13:09:18;16.57;;;4.57;;
7485;SDS011;3784;54.098;9.998;2023-12-28T13:12:10;19.60;;;4.70;;
7485;SDS011;3784;54.098;9.998;2023-12-28T13:15:20;16.27;;;4.40;;
7485;SDS011;3784;54.098;9.998;2023-12-28T13:17:57;20.17;;;4.43;;
7485;SDS011;3784;54.098;9.998;2023-12-28T13:20:24;14.73;;;4.13;;
7485;SDS011;3784;54.098;9.998;2023-12-28T13:22:50;15.30;;;4.70;;
7485;SDS011;3784;54.098;9.998;2023-12-28T13:25:17;14.57;;;4.70;;
7485;SDS011;3784;54.098;9.998;2023-12-28T13:27:43;20.43;;;4.80;;
7485;SDS011;3784;54.098;9.998;2023-12-28T13:30:10;16.10;;;4.37;;
7485;SDS011;3784;54.098;9.998;2023-12-28T13:32:38;18.87;;;4.73;;
7485;SDS011;3784;54.098;9.998;2023-12-28T13:35:04;23.20;;;4.80;;
7485;SDS011;3784;54.098;9.998;2023-12-28T13:37:31;14.67;;;4.73;;
7485;SDS011;3784;54.098;9.998;2023-12-28T13:39:57;14.17;;;4.47;;
7485;SDS011;3784;54.098;9.998;2023-12-28T13:42:24;22.07;;;5.10;;
7485;SDS011;3784;54.098;9.998;2023-12-28T13:44:50;14.93;;;4.53;;
7485;SDS011;3784;54.098;9.998;2023-12-28T13:47:18;18.67;;;4.10;;
7485;SDS011;3784;54.098;9.998;2023-12-28T13:49:44;14.80;;;3.73;;
7485;SDS011;3784;54.098;9.998;2023-12-28T13:52:10;19.60;;;4.87;;
7485;SDS011;3784;54.098;9.998;2023-12-28T13:54:37;9.63;;;3.30;;
7485;SDS011;3784;54.098;9.998;2023-12-28T13:57:03;14.33;;;4.63;;
7485;SDS011;3784;54.098;9.998;2023-12-28T13:59:30;20.60;;;4.87;;
7485;SDS011;3784;54.098;9.998;2023-12-28T14:01:57;14.50;;;4.27;;
7485;SDS011;3784;54.098;9.998;2023-12-28T14:04:24;16.70;;;4.87;;
7485;SDS011;3784;54.098;9.998;2023-12-28T14:06:51;17.77;;;4.90;;
7485;SDS011;3784;54.098;9.998;2023-12-28T14:09:17;15.60;;;4.83;;
7485;SDS011;3784;54.098;9.998;2023-12-28T14:11:46;18.37;;;4.40;;
7485;SDS011;3784;54.098;9.998;2023-12-28T14:14:13;21.00;;;5.40;;
7485;SDS011;3784;54.098;9.998;2023-12-28T14:16:40;19.67;;;4.53;;
7485;SDS011;3784;54.098;9.998;2023-12-28T14:19:09;14.43;;;4.23;;
7485;SDS011;3784;54.098;9.998;2023-12-28T14:21:37;16.47;;;4.03;;
7485;SDS011;3784;54.098;9.998;2023-12-28T14:24:04;15.10;;;4.60;;
7485;SDS011;3784;54.098;9.998;2023-12-28T14:26:34;14.87;;;4.23;;
7485;SDS011;3784;54.098;9.998;2023-12-28T14:29:08;19.27;;;4.60;;
7485;SDS011;3784;54.098;9.998;2023-12-28T14:31:34;14.57;;;4.57;;
7485;SDS011;3784;54.098;9.998;2023-12-28T14:34:01;19.33;;;4.77;;
7485;SDS011;3784;54.098;9.998;2023-12-28T14:36:30;16.30;;;4.63;;
7485;SDS011;3784;54.098;9.998;2023-12-28T14:39:01;13.97;;;3.63;;
7485;SDS011;3784;54.098;9.998;2023-12-28T14:41:35;16.43;;;4.37;;
7485;SDS011;3784;54.098;9.998;2023-12-28T14:44:05;14.77;;;4.23;;
7485;SDS011;3784;54.098;9.998;2023-12-28T14:46:32;14.40;;;4.40;;
7485;SDS011;3784;54.098;9.998;2023-12-28T14:48:58;14.17;;;4.57;;
7485;SDS011;3784;54.098;9.998;2023-12-28T14:51:26;14.30;;;4.07;;
7485;SDS011;3784;54.098;9.998;2023-12-28T14:53:54;13.67;;;4.40;;
7485;SDS011;3784;54.098;9.998;2023-12-28T14:56:20;11.73;;;3.53;;
7485;SDS011;3784;54.098;9.998;2023-12-28T14:58:47;13.73;;;3.97;;
7485;SDS011;3784;54.098;9.998;2023-12-28T15:01:16;18.23;;;4.60;;
7485;SDS011;3784;54.098;9.998;2023-12-28T15:03:46;14.27;;;4.13;;
7485;SDS011;3784;54.098;9.998;2023-12-28T15:06:13;9.47;;;4.20;;
7485;SDS011;3784;54.098;9.998;2023-12-28T15:08:40;20.03;;;4.10;;
7485;SDS011;3784;54.098;9.998;2023-12-28T15:11:06;12.17;;;3.63;;
7485;SDS011;3784;54.098;9.998;2023-12-28T15:13:34;16.40;;;4.90;;
7485;SDS011;3784;54.098;9.998;2023-12-28T15:16:00;15.20;;;4.17;;
7485;SDS011;3784;54.098;9.998;2023-12-28T15:18:30;14.63;;;4.70;;
7485;SDS011;3784;54.098;9.998;2023-12-28T15:20:57;15.10;;;4.40;;
7485;SDS011;3784;54.098;9.998;2023-12-28T15:23:24;17.03;;;5.17;;
7485;SDS011;3784;54.098;9.998;2023-12-28T15:25:53;17.63;;;4.83;;